Terminal Aerodrome Forecast
Issued by NWS Wilmington, OH

Home | Current Version | Previous Version | Text Only | Print | Product List | Glossary On
Versions: 1 2 3 4 5 6 7 8 9 10 11 12 13 14 15 16 17 18
000
FTUS41 KILN 311700
TAFCMH
TAF
KCMH 311739Z 3118/0118 26009KT P6SM BKN050
     FM010100 VRB03KT P6SM SKC
     FM011400 09005KT P6SM SCT040=

USA.gov is the U.S. government's official web portal to all federal, state and local government web resources and services.